logo
Search for airport 
image banner adimage banner adimage banner ad
image banner ad

YINDE - Indee

Located in Indee, Australia

ICAO - , IATA -

Data provided by Airmate  

General information

Coordinates: S20°47'6" E118°35'23"
Elevation is 253 feet MSL.
Magnetic variation is 1° East
View others Airports in Western Australia

Operational data

Special qualification required
Current time UTC:
Current local time:
Weather at : YPPD - Port Hedland ( 45 km )
METAR: YPPD 130330Z AUTO 08008KT 050V110 9999 // ////// 27/03 Q1016
TAF: TAF YPPD 122304Z 1300/1400 10012KT CAVOK BECMG 1305/1306 36007KT CAVOK FM130900 32007KT CAVOK FM131200 22005KT CAVOK FM131800 12007KT CAVOK
View NOTAMs / SUP AIP / TFR affecting this airport [VIEW]
Communications frequencies: [VIEW]

Runways:

RWY identifierQFULength (ft)Width (ft)SurfaceLDA (ft)
27267°331152DIRT
0987°331152DIRT

Airport contact information

Address: Indee Australia

Satellite view of YINDE